createdAt,value
2022-09-02T00:00:15.638Z,19.39
2022-09-02T00:02:42.594Z,19.37
2022-09-02T00:07:53.328Z,19.33
2022-09-02T00:10:19.657Z,19.31
2022-09-02T00:12:45.972Z,19.29
2022-09-02T00:15:12.284Z,19.26
2022-09-02T00:17:38.912Z,19.25
2022-09-02T00:20:08.317Z,19.23
2022-09-02T00:22:35.930Z,19.20
2022-09-02T00:25:02.215Z,19.18
2022-09-02T00:27:30.586Z,19.16
2022-09-02T00:29:57.095Z,19.14
2022-09-02T00:32:24.364Z,19.12
2022-09-02T00:34:50.672Z,19.10
2022-09-02T00:37:16.984Z,19.07
2022-09-02T00:39:43.468Z,19.05
2022-09-02T00:42:09.810Z,19.04
2022-09-02T00:44:36.375Z,19.01
2022-09-02T00:47:03.071Z,18.99
2022-09-02T00:49:29.615Z,18.96
2022-09-02T00:51:56.527Z,18.95
2022-09-02T00:54:23.307Z,18.92
2022-09-02T00:56:49.569Z,18.91
2022-09-02T00:59:20.353Z,18.87
2022-09-02T01:01:47.162Z,18.86
2022-09-02T01:04:14.615Z,18.82
2022-09-02T01:06:41.031Z,18.80
2022-09-02T01:09:07.506Z,18.77
2022-09-02T01:11:33.836Z,18.73
2022-09-02T01:14:00.634Z,18.70
2022-09-02T01:16:27.285Z,18.65
2022-09-02T01:18:53.709Z,18.60
2022-09-02T01:21:20.211Z,18.56
2022-09-02T01:23:47.022Z,18.50
2022-09-02T01:26:14.023Z,18.46
2022-09-02T01:28:40.292Z,18.42
2022-09-02T01:31:07.514Z,18.37
2022-09-02T01:33:33.833Z,18.33
2022-09-02T01:36:01.710Z,18.28
2022-09-02T01:38:28.541Z,18.24
2022-09-02T01:40:54.844Z,18.20
2022-09-02T01:43:22.085Z,18.17
2022-09-02T01:45:48.363Z,18.13
2022-09-02T01:48:14.743Z,18.07
2022-09-02T01:50:49.256Z,18.03
2022-09-02T01:53:15.703Z,17.99
2022-09-02T01:55:43.651Z,17.95
2022-09-02T01:58:10.839Z,17.92
2022-09-02T02:00:38.830Z,17.89
2022-09-02T02:03:05.631Z,17.86
2022-09-02T02:05:35.363Z,17.82
2022-09-02T02:08:03.835Z,17.79
2022-09-02T02:10:30.183Z,17.77
2022-09-02T02:12:56.540Z,17.73
2022-09-02T02:17:55.048Z,17.66
2022-09-02T02:20:21.451Z,17.64
2022-09-02T02:22:47.788Z,17.61
2022-09-02T02:25:15.479Z,17.58
2022-09-02T02:27:43.738Z,17.55
2022-09-02T02:30:10.306Z,17.52
2022-09-02T02:32:36.728Z,17.49
2022-09-02T02:35:03.174Z,17.46
2022-09-02T02:37:30.110Z,17.43
2022-09-02T02:39:56.643Z,17.41
2022-09-02T02:42:23.913Z,17.38
2022-09-02T02:44:50.306Z,17.36
2022-09-02T02:47:17.861Z,17.34
2022-09-02T02:49:44.338Z,17.32
2022-09-02T02:52:10.727Z,17.28
2022-09-02T02:54:37.805Z,17.24
2022-09-02T02:57:04.283Z,17.23
2022-09-02T02:59:30.774Z,17.20
2022-09-02T03:01:57.492Z,17.17
2022-09-02T03:04:23.977Z,17.15
2022-09-02T03:06:50.770Z,17.11
2022-09-02T03:09:17.096Z,17.10
2022-09-02T03:11:45.594Z,17.07
2022-09-02T03:14:11.990Z,17.04
2022-09-02T03:16:38.939Z,17.01
2022-09-02T03:19:05.859Z,16.98
2022-09-02T03:21:38.742Z,16.95
2022-09-02T03:24:06.767Z,16.92
2022-09-02T03:26:34.466Z,16.89
2022-09-02T03:29:01.772Z,16.87
2022-09-02T03:31:29.647Z,16.84
2022-09-02T03:33:56.056Z,16.81
2022-09-02T03:36:22.438Z,16.79
2022-09-02T03:38:49.143Z,16.77
2022-09-02T03:41:17.352Z,16.75
2022-09-02T03:43:43.692Z,16.72
2022-09-02T03:46:10.044Z,16.71
2022-09-02T03:48:36.705Z,16.68
2022-09-02T03:51:03.171Z,16.66
2022-09-02T03:53:31.322Z,16.65
2022-09-02T03:55:57.954Z,16.63
2022-09-02T03:58:24.785Z,16.61
2022-09-02T04:00:51.136Z,16.60
2022-09-02T04:03:17.917Z,16.59
2022-09-02T04:05:44.957Z,16.57
2022-09-02T04:08:11.249Z,16.57
2022-09-02T04:10:37.498Z,16.56
2022-09-02T04:13:03.785Z,16.51
2022-09-02T04:15:30.109Z,16.54
2022-09-02T04:17:56.653Z,16.53
2022-09-02T04:20:23.043Z,16.52
2022-09-02T04:22:49.380Z,16.51
2022-09-02T04:25:15.644Z,16.50
2022-09-02T04:27:41.865Z,16.49
2022-09-02T04:30:08.129Z,16.48
2022-09-02T04:32:38.441Z,16.47
2022-09-02T04:35:07.858Z,16.48
2022-09-02T04:37:37.243Z,16.54
2022-09-02T04:40:03.581Z,16.76
2022-09-02T04:42:29.895Z,16.98
2022-09-02T04:44:56.288Z,17.17
2022-09-02T04:47:23.186Z,17.39
2022-09-02T04:49:49.831Z,17.58
2022-09-02T04:52:16.700Z,17.76
2022-09-02T04:54:43.507Z,18.01
2022-09-02T04:57:09.840Z,18.18
2022-09-02T04:59:36.195Z,18.32
2022-09-02T05:02:05.903Z,18.45
2022-09-02T05:04:32.416Z,18.61
2022-09-02T05:06:58.732Z,18.75
2022-09-02T05:09:25.195Z,18.87
2022-09-02T05:11:51.509Z,18.96
2022-09-02T05:14:17.801Z,19.00
2022-09-02T05:16:44.234Z,18.99
2022-09-02T05:19:10.561Z,18.94
2022-09-02T05:21:36.864Z,18.83
2022-09-02T05:24:03.354Z,18.73
2022-09-02T05:26:29.872Z,18.79
2022-09-02T05:28:56.158Z,18.89
2022-09-02T05:31:22.508Z,19.16
2022-09-02T05:33:48.875Z,19.42
2022-09-02T05:36:15.313Z,19.60
2022-09-02T05:38:41.581Z,19.77
2022-09-02T05:41:07.846Z,19.94
2022-09-02T05:43:34.153Z,20.13
2022-09-02T05:46:00.749Z,20.24
2022-09-02T05:48:27.505Z,20.15
2022-09-02T05:50:57.372Z,20.15
2022-09-02T05:53:24.124Z,20.36
2022-09-02T05:55:50.478Z,20.65
2022-09-02T05:58:16.799Z,20.72
2022-09-02T06:00:43.204Z,20.76
2022-09-02T06:03:09.646Z,20.83
2022-09-02T06:05:36.112Z,20.87
2022-09-02T06:08:02.545Z,20.83
2022-09-02T06:10:28.835Z,20.80
2022-09-02T06:12:55.106Z,20.84
2022-09-02T06:15:21.399Z,20.91
2022-09-02T06:17:47.657Z,21.31
2022-09-02T06:20:13.954Z,21.69
2022-09-02T06:22:40.466Z,21.94
2022-09-02T06:25:06.795Z,22.15
2022-09-02T06:27:33.147Z,22.32
2022-09-02T06:29:59.505Z,22.38
2022-09-02T06:32:25.801Z,22.29
2022-09-02T06:37:37.360Z,22.27
2022-09-02T06:40:04.248Z,22.26
2022-09-02T06:42:30.536Z,22.35
2022-09-02T06:44:57.128Z,22.38
2022-09-02T06:47:23.474Z,22.69
2022-09-02T06:49:50.091Z,22.92
2022-09-02T06:52:16.407Z,22.95
2022-09-02T06:54:43.179Z,23.18
2022-09-02T06:57:09.487Z,23.27
2022-09-02T06:59:36.084Z,23.35
2022-09-02T07:02:02.684Z,23.51
2022-09-02T07:04:31.191Z,23.67
2022-09-02T07:06:57.812Z,23.87
2022-09-02T07:09:24.173Z,24.09
2022-09-02T07:11:50.458Z,24.20
2022-09-02T07:14:17.204Z,24.27
2022-09-02T07:16:45.865Z,24.44
2022-09-02T07:19:16.117Z,24.62
2022-09-02T07:21:44.842Z,24.78
2022-09-02T07:24:11.164Z,24.86
2022-09-02T07:26:37.446Z,25.02
2022-09-02T07:29:03.998Z,25.19
2022-09-02T07:31:30.399Z,25.32
2022-09-02T07:33:56.687Z,25.48
2022-09-02T07:36:23.059Z,25.62
2022-09-02T07:38:49.334Z,25.78
2022-09-02T07:41:15.647Z,25.93
2022-09-02T07:43:41.930Z,26.07
2022-09-02T07:46:08.275Z,26.21
2022-09-02T07:48:34.670Z,26.35
2022-09-02T07:51:01.027Z,26.49
2022-09-02T07:53:27.445Z,26.64
2022-09-02T07:55:54.168Z,26.79
2022-09-02T07:58:20.506Z,26.96
2022-09-02T08:00:46.759Z,27.13
2022-09-02T08:03:13.315Z,27.32
2022-09-02T08:05:39.627Z,27.50
2022-09-02T08:08:06.439Z,27.73
2022-09-02T08:10:32.709Z,27.95
2022-09-02T08:12:59.113Z,28.16
2022-09-02T08:15:25.400Z,28.38
2022-09-02T08:17:52.874Z,28.62
2022-09-02T08:20:19.174Z,28.79
2022-09-02T08:22:48.956Z,28.95
2022-09-02T08:25:22.279Z,29.12
2022-09-02T08:27:51.541Z,29.24
2022-09-02T08:30:17.886Z,29.38
2022-09-02T08:32:44.163Z,29.54
2022-09-02T08:35:10.459Z,29.67
2022-09-02T08:37:36.785Z,29.82
2022-09-02T08:40:04.763Z,29.95
2022-09-02T08:42:31.203Z,30.02
2022-09-02T08:44:57.912Z,30.04
2022-09-02T08:47:24.253Z,30.03
2022-09-02T08:49:50.657Z,29.92
2022-09-02T08:52:17.863Z,29.80
2022-09-02T08:54:44.504Z,29.64
2022-09-02T08:57:10.825Z,29.41
2022-09-02T08:59:37.271Z,29.23
2022-09-02T09:02:05.938Z,29.06
2022-09-02T09:04:32.277Z,28.86
2022-09-02T09:06:58.653Z,28.68
2022-09-02T09:09:25.499Z,28.46
2022-09-02T09:11:52.160Z,28.16
2022-09-02T09:14:20.488Z,27.74
2022-09-02T09:16:46.850Z,27.18
2022-09-02T09:19:13.254Z,26.97
2022-09-02T09:21:39.576Z,26.84
2022-09-02T09:24:06.225Z,26.74
2022-09-02T09:26:32.477Z,26.68
2022-09-02T09:28:58.735Z,26.63
2022-09-02T09:31:25.351Z,26.60
2022-09-02T09:33:52.109Z,26.56
2022-09-02T09:36:18.444Z,26.57
2022-09-02T09:38:44.758Z,26.56
2022-09-02T09:41:11.329Z,26.54
2022-09-02T09:43:37.634Z,26.51
2022-09-02T09:46:04.068Z,26.46
2022-09-02T09:48:30.471Z,26.43
2022-09-02T09:50:56.734Z,26.42
2022-09-02T09:53:23.128Z,26.42
2022-09-02T09:55:49.509Z,26.42
2022-09-02T09:58:15.832Z,26.41
2022-09-02T10:00:42.316Z,26.39
2022-09-02T10:03:08.693Z,26.39
2022-09-02T10:05:36.060Z,26.40
2022-09-02T10:08:02.422Z,26.41
2022-09-02T10:10:28.711Z,26.44
2022-09-02T10:12:54.980Z,26.45
2022-09-02T10:15:21.307Z,26.46
2022-09-02T10:17:48.126Z,26.48
2022-09-02T10:20:14.370Z,26.50
2022-09-02T10:22:58.477Z,26.51
2022-09-02T10:25:26.492Z,26.40
2022-09-02T10:27:53.019Z,26.35
2022-09-02T10:30:19.502Z,26.29
2022-09-02T10:32:45.756Z,26.19
2022-09-02T10:35:12.041Z,26.13
2022-09-02T10:37:38.378Z,26.06
2022-09-02T10:40:05.162Z,26.02
2022-09-02T10:42:31.531Z,25.99
2022-09-02T10:44:59.043Z,25.97
2022-09-02T10:47:29.394Z,26.01
2022-09-02T10:49:57.979Z,26.07
2022-09-02T10:52:24.302Z,26.04
2022-09-02T10:54:50.861Z,25.98
2022-09-02T10:57:17.631Z,25.94
2022-09-02T10:59:43.936Z,25.95
2022-09-02T11:02:10.440Z,25.96
2022-09-02T11:04:36.729Z,25.97
2022-09-02T11:07:03.949Z,25.92
2022-09-02T11:09:32.661Z,25.89
2022-09-02T11:12:00.296Z,25.88
2022-09-02T11:14:27.020Z,25.84
2022-09-02T11:16:53.533Z,25.80
2022-09-02T11:19:20.300Z,25.78
2022-09-02T11:21:46.762Z,25.75
2022-09-02T11:24:13.424Z,25.71
2022-09-02T11:26:39.970Z,25.66
2022-09-02T11:29:06.510Z,25.63
2022-09-02T11:31:34.622Z,25.60
2022-09-02T11:36:33.373Z,25.59
2022-09-02T11:39:00.101Z,25.54
2022-09-02T11:41:36.745Z,25.49
2022-09-02T11:44:03.592Z,25.46
2022-09-02T11:46:30.005Z,25.45
2022-09-02T11:48:56.512Z,25.43
2022-09-02T11:51:23.128Z,25.41
2022-09-02T11:53:49.390Z,25.41
2022-09-02T11:56:24.321Z,25.38
2022-09-02T11:58:50.682Z,25.39
2022-09-02T12:01:17.909Z,25.37
2022-09-02T12:04:16.191Z,25.32
2022-09-02T12:06:37.399Z,25.31
2022-09-02T12:09:13.028Z,25.42
2022-09-02T12:11:39.590Z,25.47
2022-09-02T12:14:08.005Z,25.48
2022-09-02T12:16:34.864Z,25.45
2022-09-02T12:19:01.311Z,25.47
2022-09-02T12:21:27.726Z,25.52
2022-09-02T12:24:15.140Z,25.51
2022-09-02T12:26:46.046Z,25.51
2022-09-02T12:29:17.153Z,25.46
2022-09-02T12:31:43.863Z,25.43
2022-09-02T12:34:10.269Z,25.46
2022-09-02T12:36:39.419Z,25.49
2022-09-02T12:39:15.523Z,25.51
2022-09-02T12:41:45.128Z,25.51
2022-09-02T12:44:11.693Z,25.50
2022-09-02T12:46:43.749Z,25.48
2022-09-02T12:49:11.335Z,25.49
2022-09-02T12:51:39.008Z,25.45
2022-09-02T12:54:08.700Z,25.43
2022-09-02T12:56:39.521Z,25.40
2022-09-02T12:59:06.128Z,25.39
2022-09-02T13:01:35.372Z,25.45
2022-09-02T13:04:01.879Z,25.46
2022-09-02T13:06:28.281Z,25.43
2022-09-02T13:08:54.684Z,25.41
2022-09-02T13:11:23.491Z,25.39
2022-09-02T13:13:49.771Z,25.37
2022-09-02T13:16:19.091Z,25.35
2022-09-02T13:18:45.700Z,25.32
2022-09-02T13:21:12.439Z,25.33
2022-09-02T13:23:38.760Z,25.32
2022-09-02T13:26:05.440Z,25.28
2022-09-02T13:28:33.927Z,25.27
2022-09-02T13:31:00.256Z,25.24
2022-09-02T13:33:26.532Z,25.22
2022-09-02T13:35:52.854Z,25.20
2022-09-02T13:38:20.959Z,25.19
2022-09-02T13:40:49.347Z,25.18
2022-09-02T13:43:15.760Z,25.18
2022-09-02T13:45:42.353Z,25.21
2022-09-02T13:48:17.313Z,25.22
2022-09-02T13:50:44.244Z,25.24
2022-09-02T13:55:57.142Z,25.26
2022-09-02T13:58:23.407Z,25.24
2022-09-02T14:00:50.604Z,25.22
2022-09-02T14:03:17.271Z,25.23
2022-09-02T14:05:47.401Z,25.24
2022-09-02T14:08:14.192Z,25.25
2022-09-02T14:10:40.482Z,25.24
2022-09-02T14:13:06.762Z,25.24
2022-09-02T14:15:33.114Z,25.25
2022-09-02T14:17:59.456Z,25.24
2022-09-02T14:20:25.799Z,25.25
2022-09-02T14:22:52.117Z,25.25
2022-09-02T14:25:19.097Z,25.24
2022-09-02T14:27:45.436Z,25.22
2022-09-02T14:30:11.710Z,25.19
2022-09-02T14:32:38.063Z,25.18
2022-09-02T14:35:04.466Z,25.17
2022-09-02T14:37:30.932Z,25.14
2022-09-02T14:39:57.335Z,25.14
2022-09-02T14:42:26.270Z,25.14
2022-09-02T14:44:55.541Z,25.16
2022-09-02T14:47:22.781Z,25.16
2022-09-02T14:49:49.879Z,25.16
2022-09-02T14:52:16.236Z,25.16
2022-09-02T14:54:43.522Z,25.15
2022-09-02T14:57:12.879Z,25.15
2022-09-02T14:59:39.455Z,25.15
2022-09-02T15:02:06.944Z,25.16
2022-09-02T15:04:33.224Z,25.15
2022-09-02T15:06:59.657Z,25.17
2022-09-02T15:09:25.927Z,25.17
2022-09-02T15:11:52.537Z,25.17
2022-09-02T15:14:18.871Z,25.15
2022-09-02T15:16:45.529Z,25.13
2022-09-02T15:19:11.812Z,25.12
2022-09-02T15:21:38.284Z,25.00
2022-09-02T15:24:05.901Z,25.07
2022-09-02T15:26:32.274Z,25.05
2022-09-02T15:28:58.708Z,25.04
2022-09-02T15:31:25.300Z,25.01
2022-09-02T15:33:51.781Z,24.98
2022-09-02T15:36:21.081Z,24.96
2022-09-02T15:38:47.389Z,24.95
2022-09-02T15:41:13.711Z,24.91
2022-09-02T15:43:40.150Z,24.89
2022-09-02T15:46:06.421Z,24.90
2022-09-02T15:48:33.342Z,24.87
2022-09-02T15:50:59.627Z,24.86
2022-09-02T15:53:26.618Z,24.85
2022-09-02T15:55:52.909Z,24.83
2022-09-02T15:58:19.149Z,24.82
2022-09-02T16:00:46.138Z,24.81
2022-09-02T16:03:12.457Z,24.80
2022-09-02T16:05:38.728Z,24.80
2022-09-02T16:08:05.212Z,24.78
2022-09-02T16:10:31.605Z,24.76
2022-09-02T16:12:58.311Z,24.75
2022-09-02T16:15:24.556Z,24.74
2022-09-02T16:17:51.104Z,24.72
2022-09-02T16:20:21.126Z,24.72
2022-09-02T16:22:49.598Z,24.70
2022-09-02T16:25:16.007Z,24.68
2022-09-02T16:27:42.432Z,24.66
2022-09-02T16:30:08.884Z,24.64
2022-09-02T16:32:35.347Z,24.62
2022-09-02T16:35:01.935Z,24.61
2022-09-02T16:37:28.245Z,24.59
2022-09-02T16:39:54.665Z,24.58
2022-09-02T16:42:21.090Z,24.54
2022-09-02T16:44:51.413Z,24.52
2022-09-02T16:47:18.028Z,24.51
2022-09-02T16:49:44.362Z,24.49
2022-09-02T16:52:10.698Z,24.48
2022-09-02T16:54:40.738Z,24.46
2022-09-02T16:57:07.606Z,24.44
2022-09-02T16:59:33.996Z,24.43
2022-09-02T17:02:00.437Z,24.40
2022-09-02T17:04:26.944Z,24.39
2022-09-02T17:06:53.351Z,24.37
2022-09-02T17:09:19.678Z,24.35
2022-09-02T17:11:46.088Z,24.35
2022-09-02T17:14:12.604Z,24.31
2022-09-02T17:16:42.906Z,24.30
2022-09-02T17:19:09.586Z,24.27
2022-09-02T17:21:35.884Z,24.27
2022-09-02T17:24:02.173Z,24.24
2022-09-02T17:26:28.499Z,24.22
2022-09-02T17:28:55.289Z,24.21
2022-09-02T17:31:21.662Z,24.19
2022-09-02T17:33:48.029Z,24.18
2022-09-02T17:36:14.322Z,24.15
2022-09-02T17:38:40.686Z,24.14
2022-09-02T17:41:06.926Z,24.12
2022-09-02T17:43:33.380Z,24.09
2022-09-02T17:45:59.679Z,24.06
2022-09-02T17:48:37.229Z,24.05
2022-09-02T17:51:08.312Z,24.01
2022-09-02T17:53:34.836Z,23.99
2022-09-02T17:56:01.167Z,23.96
2022-09-02T17:58:27.515Z,23.93
2022-09-02T18:00:54.143Z,23.91
2022-09-02T18:03:22.443Z,23.89
2022-09-02T18:05:48.914Z,23.85
2022-09-02T18:08:15.331Z,23.82
2022-09-02T18:10:42.747Z,23.79
2022-09-02T18:13:09.042Z,23.76
2022-09-02T18:15:36.405Z,23.72
2022-09-02T18:18:03.542Z,23.69
2022-09-02T18:20:30.983Z,23.66
2022-09-02T18:22:57.288Z,23.64
2022-09-02T18:28:08.220Z,23.58
2022-09-02T18:30:35.593Z,23.54
2022-09-02T18:33:02.912Z,23.51
2022-09-02T18:35:29.490Z,23.48
2022-09-02T18:37:57.936Z,23.45
2022-09-02T18:40:24.453Z,23.42
2022-09-02T18:42:50.815Z,23.39
2022-09-02T18:45:21.339Z,23.36
2022-09-02T18:47:48.631Z,23.33
2022-09-02T18:50:26.870Z,23.31
2022-09-02T18:53:01.414Z,23.28
2022-09-02T18:55:27.779Z,23.24
2022-09-02T18:57:54.076Z,23.22
2022-09-02T19:00:20.707Z,23.18
2022-09-02T19:02:46.982Z,23.16
2022-09-02T19:07:41.979Z,23.10
2022-09-02T19:10:08.243Z,23.09
2022-09-02T19:12:34.741Z,23.06
2022-09-02T19:15:01.716Z,23.03
2022-09-02T19:17:28.066Z,23.01
2022-09-02T19:19:54.391Z,22.98
2022-09-02T19:22:21.192Z,22.96
2022-09-02T19:24:47.443Z,22.94
2022-09-02T19:27:13.781Z,22.92
2022-09-02T19:29:40.203Z,22.90
2022-09-02T19:32:06.533Z,22.88
2022-09-02T19:34:32.924Z,22.87
2022-09-02T19:36:59.240Z,22.84
2022-09-02T19:39:26.147Z,22.81
2022-09-02T19:41:52.509Z,22.79
2022-09-02T19:44:18.811Z,22.78
2022-09-02T19:49:32.067Z,22.74
2022-09-02T19:51:58.357Z,22.71
2022-09-02T19:54:24.609Z,22.69
2022-09-02T19:56:50.875Z,22.67
2022-09-02T19:59:17.328Z,22.65
2022-09-02T20:01:43.675Z,22.55
2022-09-02T20:04:10.027Z,22.61
2022-09-02T20:06:36.685Z,22.59
2022-09-02T20:09:03.014Z,22.57
2022-09-02T20:11:29.636Z,22.55
2022-09-02T20:13:55.934Z,22.52
2022-09-02T20:16:22.364Z,22.50
2022-09-02T20:18:48.764Z,22.47
2022-09-02T20:21:15.060Z,22.45
2022-09-02T20:23:41.378Z,22.43
2022-09-02T20:26:08.262Z,22.39
2022-09-02T20:28:35.829Z,22.37
2022-09-02T20:31:04.292Z,22.35
2022-09-02T20:33:30.825Z,22.22
2022-09-02T20:35:57.419Z,22.31
2022-09-02T20:38:23.870Z,22.30
2022-09-02T20:40:50.725Z,22.29
2022-09-02T20:43:17.158Z,22.28
2022-09-02T20:45:43.609Z,22.27
2022-09-02T20:48:10.374Z,22.26
2022-09-02T20:50:37.313Z,22.26
2022-09-02T20:53:03.596Z,22.25
2022-09-02T20:55:32.246Z,22.24
2022-09-02T20:57:58.700Z,22.23
2022-09-02T21:00:25.308Z,22.23
2022-09-02T21:02:51.837Z,22.21
2022-09-02T21:05:22.243Z,22.20
2022-09-02T21:07:49.591Z,22.19
2022-09-02T21:10:15.896Z,22.17
2022-09-02T21:12:42.251Z,22.16
2022-09-02T21:15:08.815Z,22.15
2022-09-02T21:17:35.369Z,22.14
2022-09-02T21:20:01.941Z,22.13
2022-09-02T21:22:28.207Z,22.11
2022-09-02T21:24:54.561Z,22.10
2022-09-02T21:27:20.836Z,22.10
2022-09-02T21:29:47.201Z,22.08
2022-09-02T21:32:17.383Z,22.06
2022-09-02T21:34:44.098Z,22.05
2022-09-02T21:37:10.626Z,22.03
2022-09-02T21:39:37.121Z,22.02
2022-09-02T21:42:04.227Z,22.01
2022-09-02T21:44:33.446Z,21.99
2022-09-02T21:47:02.785Z,21.97
2022-09-02T21:49:29.404Z,21.97
2022-09-02T21:51:57.843Z,21.95
2022-09-02T21:54:24.713Z,21.94
2022-09-02T21:56:51.142Z,21.93
2022-09-02T21:59:17.592Z,21.93
2022-09-02T22:01:44.911Z,21.93
2022-09-02T22:04:11.472Z,21.92
2022-09-02T22:06:37.902Z,21.90
2022-09-02T22:09:04.351Z,21.86
2022-09-02T22:11:30.659Z,21.84
2022-09-02T22:13:57.000Z,21.81
2022-09-02T22:16:23.307Z,21.79
2022-09-02T22:18:50.453Z,21.75
2022-09-02T22:21:16.926Z,21.73
2022-09-02T22:23:43.367Z,21.70
2022-09-02T22:26:09.710Z,21.67
2022-09-02T22:28:36.401Z,21.65
2022-09-02T22:31:03.089Z,21.62
2022-09-02T22:33:29.644Z,21.61
2022-09-02T22:35:57.215Z,21.59
2022-09-02T22:38:23.865Z,21.57
2022-09-02T22:40:50.290Z,21.55
2022-09-02T22:43:16.602Z,21.52
2022-09-02T22:45:42.866Z,21.50
2022-09-02T22:48:09.291Z,21.48
2022-09-02T22:50:35.531Z,21.46
2022-09-02T22:53:01.946Z,21.43
2022-09-02T22:55:29.106Z,21.41
2022-09-02T22:57:55.774Z,21.39
2022-09-02T23:00:22.509Z,21.37
2022-09-02T23:02:48.819Z,21.35
2022-09-02T23:05:15.671Z,21.34
2022-09-02T23:07:42.107Z,21.32
2022-09-02T23:10:08.427Z,21.30
2022-09-02T23:12:34.716Z,21.27
2022-09-02T23:15:01.123Z,21.27
2022-09-02T23:17:27.433Z,21.24
2022-09-02T23:19:53.743Z,21.23
2022-09-02T23:22:20.483Z,21.20
2022-09-02T23:24:46.809Z,21.19
2022-09-02T23:27:13.690Z,21.17
2022-09-02T23:29:39.944Z,21.15
2022-09-02T23:32:06.278Z,21.11
2022-09-02T23:34:32.539Z,21.10
2022-09-02T23:36:59.077Z,21.09
2022-09-02T23:39:25.409Z,21.08
2022-09-02T23:41:51.769Z,21.06
2022-09-02T23:44:18.058Z,21.05
2022-09-02T23:46:44.672Z,21.03
2022-09-02T23:49:11.000Z,21.00
2022-09-02T23:51:37.772Z,21.00
2022-09-02T23:54:04.139Z,20.98
2022-09-02T23:56:32.766Z,20.97
2022-09-02T23:58:59.693Z,20.86
